MATER UKLL (LWO)

Остані дані METAR із Аеропорта UKLL (LWO)

L'Viv, Ukraine (UKLL) 49-49N 023-57E 323M
Jan 26, 2022 - 01:00 PM EST / 2022.01.26 1800 UTC
Wind: from the WNW (290 degrees) at 7 MPH (6 KT):0
Visibility: 3 mile(s):0
Sky conditions: mostly cloudy
Weather: light rain showers, snow; Cumulonimbus clouds observed
Temperature: 32 F (0 C)
Windchill: 24 F (-4 C):1
Dew Point: 32 F (0 C)
Relative Humidity: 100%
Pressure (altimeter): 30.12 in. Hg (1020 hPa)
ob: UKLL 261800Z 29003MPS 6000 -SHRASN BKN003 BKN020CB 00/M00 Q1020 NOSIG
cycle: 18